sensor_id;sensor_type;location;lat;lon;timestamp;P1;durP1;ratioP1;P2;durP2;ratioP2
20890;SDS011;10605;52.968;8.844;2023-04-10T00:01:04;73.95;;;40.90;;
20890;SDS011;10605;52.968;8.844;2023-04-10T00:03:30;65.03;;;39.53;;
20890;SDS011;10605;52.968;8.844;2023-04-10T00:05:56;69.55;;;39.70;;
20890;SDS011;10605;52.968;8.844;2023-04-10T00:08:22;72.40;;;40.53;;
20890;SDS011;10605;52.968;8.844;2023-04-10T00:10:49;68.28;;;40.55;;
20890;SDS011;10605;52.968;8.844;2023-04-10T00:13:15;67.28;;;38.92;;
20890;SDS011;10605;52.968;8.844;2023-04-10T00:15:44;67.63;;;40.85;;
20890;SDS011;10605;52.968;8.844;2023-04-10T00:18:10;69.82;;;41.58;;
20890;SDS011;10605;52.968;8.844;2023-04-10T00:20:36;69.43;;;41.53;;
20890;SDS011;10605;52.968;8.844;2023-04-10T00:23:02;72.13;;;40.75;;
20890;SDS011;10605;52.968;8.844;2023-04-10T00:25:27;69.22;;;39.03;;
20890;SDS011;10605;52.968;8.844;2023-04-10T00:27:53;69.95;;;39.67;;
20890;SDS011;10605;52.968;8.844;2023-04-10T00:30:19;67.47;;;40.55;;
20890;SDS011;10605;52.968;8.844;2023-04-10T00:32:45;73.90;;;41.50;;
20890;SDS011;10605;52.968;8.844;2023-04-10T00:35:11;67.15;;;40.83;;
20890;SDS011;10605;52.968;8.844;2023-04-10T00:37:36;75.05;;;42.90;;
20890;SDS011;10605;52.968;8.844;2023-04-10T00:40:03;78.50;;;44.28;;
20890;SDS011;10605;52.968;8.844;2023-04-10T00:42:30;77.63;;;42.28;;
20890;SDS011;10605;52.968;8.844;2023-04-10T00:44:56;75.90;;;42.83;;
20890;SDS011;10605;52.968;8.844;2023-04-10T00:47:22;73.95;;;41.97;;
20890;SDS011;10605;52.968;8.844;2023-04-10T00:49:47;78.80;;;43.45;;
20890;SDS011;10605;52.968;8.844;2023-04-10T00:52:13;80.07;;;43.50;;
20890;SDS011;10605;52.968;8.844;2023-04-10T00:54:39;79.70;;;43.85;;
20890;SDS011;10605;52.968;8.844;2023-04-10T00:57:08;80.93;;;43.13;;
20890;SDS011;10605;52.968;8.844;2023-04-10T00:59:37;82.35;;;44.30;;
20890;SDS011;10605;52.968;8.844;2023-04-10T01:02:03;83.32;;;44.65;;
20890;SDS011;10605;52.968;8.844;2023-04-10T01:04:28;78.55;;;44.88;;
20890;SDS011;10605;52.968;8.844;2023-04-10T01:15:11;84.45;;;46.65;;
20890;SDS011;10605;52.968;8.844;2023-04-10T01:17:53;81.28;;;45.67;;
20890;SDS011;10605;52.968;8.844;2023-04-10T01:20:21;85.75;;;47.38;;
20890;SDS011;10605;52.968;8.844;2023-04-10T01:25:48;82.78;;;45.97;;
20890;SDS011;10605;52.968;8.844;2023-04-10T01:31:19;88.90;;;46.67;;
20890;SDS011;10605;52.968;8.844;2023-04-10T01:34:02;78.97;;;45.50;;
20890;SDS011;10605;52.968;8.844;2023-04-10T01:36:33;82.45;;;47.75;;
20890;SDS011;10605;52.968;8.844;2023-04-10T01:39:07;85.97;;;47.58;;
20890;SDS011;10605;52.968;8.844;2023-04-10T01:41:33;89.25;;;47.80;;
20890;SDS011;10605;52.968;8.844;2023-04-10T01:44:00;94.07;;;49.30;;
20890;SDS011;10605;52.968;8.844;2023-04-10T01:46:27;87.85;;;48.38;;
20890;SDS011;10605;52.968;8.844;2023-04-10T01:48:54;93.43;;;49.80;;
20890;SDS011;10605;52.968;8.844;2023-04-10T01:51:23;90.38;;;50.38;;
20890;SDS011;10605;52.968;8.844;2023-04-10T01:53:48;83.32;;;49.05;;
20890;SDS011;10605;52.968;8.844;2023-04-10T01:56:15;85.57;;;48.17;;
20890;SDS011;10605;52.968;8.844;2023-04-10T01:58:41;89.25;;;49.75;;
20890;SDS011;10605;52.968;8.844;2023-04-10T02:01:07;88.10;;;47.95;;
20890;SDS011;10605;52.968;8.844;2023-04-10T02:03:34;87.05;;;49.10;;
20890;SDS011;10605;52.968;8.844;2023-04-10T02:06:09;83.53;;;48.05;;
20890;SDS011;10605;52.968;8.844;2023-04-10T02:08:36;84.55;;;48.60;;
20890;SDS011;10605;52.968;8.844;2023-04-10T02:11:14;86.32;;;48.58;;
20890;SDS011;10605;52.968;8.844;2023-04-10T02:13:45;84.00;;;48.75;;
20890;SDS011;10605;52.968;8.844;2023-04-10T02:16:14;85.60;;;49.03;;
20890;SDS011;10605;52.968;8.844;2023-04-10T02:18:43;86.57;;;48.42;;
20890;SDS011;10605;52.968;8.844;2023-04-10T02:21:10;84.50;;;48.92;;
20890;SDS011;10605;52.968;8.844;2023-04-10T02:23:36;89.45;;;48.92;;
20890;SDS011;10605;52.968;8.844;2023-04-10T02:26:08;86.22;;;49.90;;
20890;SDS011;10605;52.968;8.844;2023-04-10T02:28:36;91.53;;;52.20;;
20890;SDS011;10605;52.968;8.844;2023-04-10T02:31:03;89.72;;;51.40;;
20890;SDS011;10605;52.968;8.844;2023-04-10T02:33:28;90.72;;;49.10;;
20890;SDS011;10605;52.968;8.844;2023-04-10T02:35:54;88.50;;;49.72;;
20890;SDS011;10605;52.968;8.844;2023-04-10T02:38:20;89.68;;;49.05;;
20890;SDS011;10605;52.968;8.844;2023-04-10T02:40:46;92.57;;;52.35;;
20890;SDS011;10605;52.968;8.844;2023-04-10T02:43:11;83.00;;;48.38;;
20890;SDS011;10605;52.968;8.844;2023-04-10T02:45:37;86.53;;;51.08;;
20890;SDS011;10605;52.968;8.844;2023-04-10T02:48:04;92.03;;;51.35;;
20890;SDS011;10605;52.968;8.844;2023-04-10T02:50:30;92.72;;;51.47;;
20890;SDS011;10605;52.968;8.844;2023-04-10T02:52:56;94.60;;;52.28;;
20890;SDS011;10605;52.968;8.844;2023-04-10T02:55:22;92.80;;;51.67;;
20890;SDS011;10605;52.968;8.844;2023-04-10T02:57:47;96.75;;;52.28;;
20890;SDS011;10605;52.968;8.844;2023-04-10T03:00:13;94.55;;;52.13;;
20890;SDS011;10605;52.968;8.844;2023-04-10T03:02:39;92.32;;;52.90;;
20890;SDS011;10605;52.968;8.844;2023-04-10T03:05:05;95.53;;;54.63;;
20890;SDS011;10605;52.968;8.844;2023-04-10T03:07:32;87.18;;;50.63;;
20890;SDS011;10605;52.968;8.844;2023-04-10T03:09:58;97.85;;;52.40;;
20890;SDS011;10605;52.968;8.844;2023-04-10T03:12:24;93.25;;;52.20;;
20890;SDS011;10605;52.968;8.844;2023-04-10T03:14:50;91.13;;;52.20;;
20890;SDS011;10605;52.968;8.844;2023-04-10T03:17:16;91.43;;;51.75;;
20890;SDS011;10605;52.968;8.844;2023-04-10T03:19:42;93.70;;;52.38;;
20890;SDS011;10605;52.968;8.844;2023-04-10T03:22:07;97.95;;;52.55;;
20890;SDS011;10605;52.968;8.844;2023-04-10T03:24:34;94.10;;;52.67;;
20890;SDS011;10605;52.968;8.844;2023-04-10T03:27:00;98.00;;;54.25;;
20890;SDS011;10605;52.968;8.844;2023-04-10T03:29:26;98.32;;;54.20;;
20890;SDS011;10605;52.968;8.844;2023-04-10T03:31:51;98.72;;;54.70;;
20890;SDS011;10605;52.968;8.844;2023-04-10T03:34:17;93.75;;;52.35;;
20890;SDS011;10605;52.968;8.844;2023-04-10T03:36:43;96.75;;;54.55;;
20890;SDS011;10605;52.968;8.844;2023-04-10T03:39:08;98.43;;;54.83;;
20890;SDS011;10605;52.968;8.844;2023-04-10T03:41:34;96.82;;;53.55;;
20890;SDS011;10605;52.968;8.844;2023-04-10T03:44:00;99.97;;;54.65;;
20890;SDS011;10605;52.968;8.844;2023-04-10T03:46:27;100.55;;;55.15;;
20890;SDS011;10605;52.968;8.844;2023-04-10T03:48:52;98.45;;;54.65;;
20890;SDS011;10605;52.968;8.844;2023-04-10T03:51:18;98.25;;;53.92;;
20890;SDS011;10605;52.968;8.844;2023-04-10T03:53:44;94.05;;;53.00;;
20890;SDS011;10605;52.968;8.844;2023-04-10T03:56:10;95.75;;;53.60;;
20890;SDS011;10605;52.968;8.844;2023-04-10T03:58:35;92.57;;;53.53;;
20890;SDS011;10605;52.968;8.844;2023-04-10T04:01:01;96.68;;;53.30;;
20890;SDS011;10605;52.968;8.844;2023-04-10T04:03:26;99.00;;;55.17;;
20890;SDS011;10605;52.968;8.844;2023-04-10T04:05:52;95.63;;;53.53;;
20890;SDS011;10605;52.968;8.844;2023-04-10T04:08:18;103.40;;;55.50;;
20890;SDS011;10605;52.968;8.844;2023-04-10T04:10:43;103.13;;;54.33;;
20890;SDS011;10605;52.968;8.844;2023-04-10T04:13:09;96.57;;;53.67;;
20890;SDS011;10605;52.968;8.844;2023-04-10T04:15:35;98.30;;;54.92;;
20890;SDS011;10605;52.968;8.844;2023-04-10T04:18:00;104.68;;;55.10;;
20890;SDS011;10605;52.968;8.844;2023-04-10T04:20:26;93.55;;;54.17;;
20890;SDS011;10605;52.968;8.844;2023-04-10T04:22:52;99.07;;;53.97;;
20890;SDS011;10605;52.968;8.844;2023-04-10T04:25:17;96.37;;;53.10;;
20890;SDS011;10605;52.968;8.844;2023-04-10T04:27:44;98.68;;;54.65;;
20890;SDS011;10605;52.968;8.844;2023-04-10T04:30:09;101.38;;;54.63;;
20890;SDS011;10605;52.968;8.844;2023-04-10T04:32:35;97.63;;;53.77;;
20890;SDS011;10605;52.968;8.844;2023-04-10T04:35:01;92.88;;;53.97;;
20890;SDS011;10605;52.968;8.844;2023-04-10T04:37:27;95.82;;;53.70;;
20890;SDS011;10605;52.968;8.844;2023-04-10T04:39:52;94.13;;;52.35;;
20890;SDS011;10605;52.968;8.844;2023-04-10T04:42:18;89.07;;;52.03;;
20890;SDS011;10605;52.968;8.844;2023-04-10T04:44:44;91.05;;;52.67;;
20890;SDS011;10605;52.968;8.844;2023-04-10T04:47:09;94.90;;;53.58;;
20890;SDS011;10605;52.968;8.844;2023-04-10T04:49:35;98.55;;;52.05;;
20890;SDS011;10605;52.968;8.844;2023-04-10T04:52:01;91.70;;;50.97;;
20890;SDS011;10605;52.968;8.844;2023-04-10T04:54:26;91.95;;;52.10;;
20890;SDS011;10605;52.968;8.844;2023-04-10T04:56:52;94.13;;;52.47;;
20890;SDS011;10605;52.968;8.844;2023-04-10T04:59:18;89.05;;;49.90;;
20890;SDS011;10605;52.968;8.844;2023-04-10T05:01:43;90.15;;;51.25;;
20890;SDS011;10605;52.968;8.844;2023-04-10T05:04:09;90.90;;;51.25;;
20890;SDS011;10605;52.968;8.844;2023-04-10T05:06:35;82.10;;;47.92;;
20890;SDS011;10605;52.968;8.844;2023-04-10T05:09:01;78.70;;;47.88;;
20890;SDS011;10605;52.968;8.844;2023-04-10T05:11:26;74.95;;;44.38;;
20890;SDS011;10605;52.968;8.844;2023-04-10T05:13:52;80.70;;;47.70;;
20890;SDS011;10605;52.968;8.844;2023-04-10T05:16:18;78.00;;;46.03;;
20890;SDS011;10605;52.968;8.844;2023-04-10T05:18:43;73.57;;;44.72;;
20890;SDS011;10605;52.968;8.844;2023-04-10T05:21:10;75.28;;;44.90;;
20890;SDS011;10605;52.968;8.844;2023-04-10T05:23:36;73.45;;;43.88;;
20890;SDS011;10605;52.968;8.844;2023-04-10T05:26:02;70.13;;;42.63;;
20890;SDS011;10605;52.968;8.844;2023-04-10T05:28:27;69.35;;;41.85;;
20890;SDS011;10605;52.968;8.844;2023-04-10T05:30:53;66.07;;;40.38;;
20890;SDS011;10605;52.968;8.844;2023-04-10T05:33:19;68.63;;;40.75;;
20890;SDS011;10605;52.968;8.844;2023-04-10T05:35:45;67.80;;;40.78;;
20890;SDS011;10605;52.968;8.844;2023-04-10T05:38:10;62.35;;;39.22;;
20890;SDS011;10605;52.968;8.844;2023-04-10T05:40:36;66.40;;;40.58;;
20890;SDS011;10605;52.968;8.844;2023-04-10T05:43:02;69.22;;;40.45;;
20890;SDS011;10605;52.968;8.844;2023-04-10T05:45:28;64.75;;;39.95;;
20890;SDS011;10605;52.968;8.844;2023-04-10T05:47:54;64.22;;;39.13;;
20890;SDS011;10605;52.968;8.844;2023-04-10T05:50:19;64.38;;;39.40;;
20890;SDS011;10605;52.968;8.844;2023-04-10T05:52:45;58.42;;;37.83;;
20890;SDS011;10605;52.968;8.844;2023-04-10T05:55:11;61.47;;;36.65;;
20890;SDS011;10605;52.968;8.844;2023-04-10T05:57:37;59.05;;;37.95;;
20890;SDS011;10605;52.968;8.844;2023-04-10T06:00:03;58.97;;;37.83;;
20890;SDS011;10605;52.968;8.844;2023-04-10T06:02:29;57.65;;;36.17;;
20890;SDS011;10605;52.968;8.844;2023-04-10T06:04:56;59.53;;;36.63;;
20890;SDS011;10605;52.968;8.844;2023-04-10T06:07:21;55.75;;;35.63;;
20890;SDS011;10605;52.968;8.844;2023-04-10T06:09:47;56.50;;;36.40;;
20890;SDS011;10605;52.968;8.844;2023-04-10T06:12:13;55.58;;;35.15;;
20890;SDS011;10605;52.968;8.844;2023-04-10T06:14:38;55.60;;;34.42;;
20890;SDS011;10605;52.968;8.844;2023-04-10T06:17:04;53.92;;;33.22;;
20890;SDS011;10605;52.968;8.844;2023-04-10T06:19:30;48.65;;;31.98;;
20890;SDS011;10605;52.968;8.844;2023-04-10T06:21:56;48.85;;;31.20;;
20890;SDS011;10605;52.968;8.844;2023-04-10T06:24:22;50.47;;;32.97;;
20890;SDS011;10605;52.968;8.844;2023-04-10T06:26:47;51.08;;;31.42;;
20890;SDS011;10605;52.968;8.844;2023-04-10T06:29:13;44.35;;;30.10;;
20890;SDS011;10605;52.968;8.844;2023-04-10T06:31:39;43.17;;;30.13;;
20890;SDS011;10605;52.968;8.844;2023-04-10T06:34:05;47.30;;;30.20;;
20890;SDS011;10605;52.968;8.844;2023-04-10T06:36:30;45.38;;;29.65;;
20890;SDS011;10605;52.968;8.844;2023-04-10T06:38:56;41.50;;;28.70;;
20890;SDS011;10605;52.968;8.844;2023-04-10T06:41:22;44.20;;;28.35;;
20890;SDS011;10605;52.968;8.844;2023-04-10T06:43:48;39.03;;;27.55;;
20890;SDS011;10605;52.968;8.844;2023-04-10T06:46:13;38.90;;;28.15;;
20890;SDS011;10605;52.968;8.844;2023-04-10T06:48:40;39.67;;;27.20;;
20890;SDS011;10605;52.968;8.844;2023-04-10T06:51:05;38.17;;;26.73;;
20890;SDS011;10605;52.968;8.844;2023-04-10T06:53:31;38.13;;;26.27;;
20890;SDS011;10605;52.968;8.844;2023-04-10T06:55:57;36.05;;;25.75;;
20890;SDS011;10605;52.968;8.844;2023-04-10T06:58:23;36.05;;;24.83;;
20890;SDS011;10605;52.968;8.844;2023-04-10T07:00:48;35.40;;;25.35;;
20890;SDS011;10605;52.968;8.844;2023-04-10T07:03:14;34.55;;;24.25;;
20890;SDS011;10605;52.968;8.844;2023-04-10T07:05:40;36.00;;;24.98;;
20890;SDS011;10605;52.968;8.844;2023-04-10T07:08:05;31.65;;;24.15;;
20890;SDS011;10605;52.968;8.844;2023-04-10T07:10:32;33.60;;;23.67;;
20890;SDS011;10605;52.968;8.844;2023-04-10T07:12:58;31.65;;;23.70;;
20890;SDS011;10605;52.968;8.844;2023-04-10T07:15:24;31.85;;;24.63;;
20890;SDS011;10605;52.968;8.844;2023-04-10T07:17:50;32.25;;;24.42;;
20890;SDS011;10605;52.968;8.844;2023-04-10T07:20:15;31.67;;;23.33;;
20890;SDS011;10605;52.968;8.844;2023-04-10T07:22:41;28.92;;;22.27;;
20890;SDS011;10605;52.968;8.844;2023-04-10T07:25:07;27.88;;;22.35;;
20890;SDS011;10605;52.968;8.844;2023-04-10T07:27:33;28.20;;;22.00;;
20890;SDS011;10605;52.968;8.844;2023-04-10T07:29:58;26.52;;;22.23;;
20890;SDS011;10605;52.968;8.844;2023-04-10T07:32:24;25.83;;;21.33;;
20890;SDS011;10605;52.968;8.844;2023-04-10T07:34:50;26.85;;;20.50;;
20890;SDS011;10605;52.968;8.844;2023-04-10T07:37:15;25.35;;;19.58;;
20890;SDS011;10605;52.968;8.844;2023-04-10T07:39:42;22.98;;;19.88;;
20890;SDS011;10605;52.968;8.844;2023-04-10T07:42:08;26.13;;;20.20;;
20890;SDS011;10605;52.968;8.844;2023-04-10T07:44:35;25.60;;;19.88;;
20890;SDS011;10605;52.968;8.844;2023-04-10T07:47:01;23.88;;;20.33;;
20890;SDS011;10605;52.968;8.844;2023-04-10T07:49:27;22.08;;;18.38;;
20890;SDS011;10605;52.968;8.844;2023-04-10T07:51:53;21.40;;;18.27;;
20890;SDS011;10605;52.968;8.844;2023-04-10T07:54:19;22.60;;;19.27;;
20890;SDS011;10605;52.968;8.844;2023-04-10T07:56:45;22.35;;;17.85;;
20890;SDS011;10605;52.968;8.844;2023-04-10T07:59:11;20.33;;;17.35;;
20890;SDS011;10605;52.968;8.844;2023-04-10T08:01:36;18.83;;;16.83;;
20890;SDS011;10605;52.968;8.844;2023-04-10T08:04:02;18.52;;;16.63;;
20890;SDS011;10605;52.968;8.844;2023-04-10T08:06:28;18.20;;;16.30;;
20890;SDS011;10605;52.968;8.844;2023-04-10T08:08:55;16.63;;;14.90;;
20890;SDS011;10605;52.968;8.844;2023-04-10T08:13:49;15.07;;;13.52;;
20890;SDS011;10605;52.968;8.844;2023-04-10T08:16:15;14.60;;;13.20;;
20890;SDS011;10605;52.968;8.844;2023-04-10T08:18:42;14.32;;;13.02;;
20890;SDS011;10605;52.968;8.844;2023-04-10T08:21:08;15.98;;;13.98;;
20890;SDS011;10605;52.968;8.844;2023-04-10T08:23:33;15.07;;;13.68;;
20890;SDS011;10605;52.968;8.844;2023-04-10T08:25:59;14.13;;;12.75;;
20890;SDS011;10605;52.968;8.844;2023-04-10T08:28:25;14.40;;;12.85;;
20890;SDS011;10605;52.968;8.844;2023-04-10T08:30:51;13.82;;;12.45;;
20890;SDS011;10605;52.968;8.844;2023-04-10T08:33:17;14.70;;;13.20;;
20890;SDS011;10605;52.968;8.844;2023-04-10T08:35:46;14.88;;;13.20;;
20890;SDS011;10605;52.968;8.844;2023-04-10T08:38:12;15.43;;;13.82;;
20890;SDS011;10605;52.968;8.844;2023-04-10T08:40:38;16.25;;;13.40;;
20890;SDS011;10605;52.968;8.844;2023-04-10T08:43:04;13.88;;;12.57;;
20890;SDS011;10605;52.968;8.844;2023-04-10T08:45:30;15.43;;;13.80;;
20890;SDS011;10605;52.968;8.844;2023-04-10T08:47:56;14.63;;;12.55;;
20890;SDS011;10605;52.968;8.844;2023-04-10T08:50:22;13.50;;;12.20;;
20890;SDS011;10605;52.968;8.844;2023-04-10T08:52:49;12.95;;;11.77;;
20890;SDS011;10605;52.968;8.844;2023-04-10T08:55:17;13.48;;;12.23;;
20890;SDS011;10605;52.968;8.844;2023-04-10T08:57:43;13.25;;;11.98;;
20890;SDS011;10605;52.968;8.844;2023-04-10T09:00:10;12.63;;;11.05;;
20890;SDS011;10605;52.968;8.844;2023-04-10T09:02:39;12.13;;;10.70;;
20890;SDS011;10605;52.968;8.844;2023-04-10T09:05:05;12.15;;;9.85;;
20890;SDS011;10605;52.968;8.844;2023-04-10T09:07:36;13.80;;;10.63;;
20890;SDS011;10605;52.968;8.844;2023-04-10T09:10:02;10.43;;;9.52;;
20890;SDS011;10605;52.968;8.844;2023-04-10T09:12:28;10.43;;;9.52;;
20890;SDS011;10605;52.968;8.844;2023-04-10T09:14:55;10.00;;;9.20;;
20890;SDS011;10605;52.968;8.844;2023-04-10T09:17:21;10.00;;;9.15;;
20890;SDS011;10605;52.968;8.844;2023-04-10T09:22:16;11.27;;;10.23;;
20890;SDS011;10605;52.968;8.844;2023-04-10T09:24:44;9.93;;;9.13;;
20890;SDS011;10605;52.968;8.844;2023-04-10T09:27:10;10.35;;;9.15;;
20890;SDS011;10605;52.968;8.844;2023-04-10T09:29:56;9.95;;;9.20;;
20890;SDS011;10605;52.968;8.844;2023-04-10T09:32:41;9.23;;;8.52;;
20890;SDS011;10605;52.968;8.844;2023-04-10T09:35:08;10.57;;;9.73;;
20890;SDS011;10605;52.968;8.844;2023-04-10T09:37:36;9.95;;;9.15;;
20890;SDS011;10605;52.968;8.844;2023-04-10T09:40:03;9.77;;;8.98;;
20890;SDS011;10605;52.968;8.844;2023-04-10T09:42:33;10.73;;;9.60;;
20890;SDS011;10605;52.968;8.844;2023-04-10T09:45:03;8.70;;;8.00;;
20890;SDS011;10605;52.968;8.844;2023-04-10T09:47:29;9.15;;;8.45;;
20890;SDS011;10605;52.968;8.844;2023-04-10T09:49:57;9.40;;;8.70;;
20890;SDS011;10605;52.968;8.844;2023-04-10T09:52:30;9.65;;;8.85;;
20890;SDS011;10605;52.968;8.844;2023-04-10T09:55:01;9.10;;;8.48;;
20890;SDS011;10605;52.968;8.844;2023-04-10T09:57:34;8.88;;;8.07;;
20890;SDS011;10605;52.968;8.844;2023-04-10T10:00:01;9.18;;;8.40;;
20890;SDS011;10605;52.968;8.844;2023-04-10T10:02:29;9.15;;;8.45;;
20890;SDS011;10605;52.968;8.844;2023-04-10T10:04:56;8.45;;;7.75;;
20890;SDS011;10605;52.968;8.844;2023-04-10T10:07:25;9.48;;;8.77;;
20890;SDS011;10605;52.968;8.844;2023-04-10T10:09:52;8.68;;;7.97;;
20890;SDS011;10605;52.968;8.844;2023-04-10T10:12:21;8.63;;;7.90;;
20890;SDS011;10605;52.968;8.844;2023-04-10T10:15:00;8.60;;;7.90;;
20890;SDS011;10605;52.968;8.844;2023-04-10T10:17:49;8.88;;;8.25;;
20890;SDS011;10605;52.968;8.844;2023-04-10T10:20:32;8.75;;;8.05;;
20890;SDS011;10605;52.968;8.844;2023-04-10T10:23:05;8.10;;;7.50;;
20890;SDS011;10605;52.968;8.844;2023-04-10T10:25:32;8.40;;;7.75;;
20890;SDS011;10605;52.968;8.844;2023-04-10T10:28:01;11.05;;;8.23;;
20890;SDS011;10605;52.968;8.844;2023-04-10T10:30:29;8.90;;;8.18;;
20890;SDS011;10605;52.968;8.844;2023-04-10T10:33:00;8.75;;;8.10;;
20890;SDS011;10605;52.968;8.844;2023-04-10T10:35:30;8.05;;;7.45;;
20890;SDS011;10605;52.968;8.844;2023-04-10T10:37:58;8.70;;;8.10;;
20890;SDS011;10605;52.968;8.844;2023-04-10T10:40:27;8.18;;;7.47;;
20890;SDS011;10605;52.968;8.844;2023-04-10T10:46:00;7.93;;;7.43;;
20890;SDS011;10605;52.968;8.844;2023-04-10T10:48:58;9.10;;;7.82;;
20890;SDS011;10605;52.968;8.844;2023-04-10T10:56:52;7.85;;;7.35;;
20890;SDS011;10605;52.968;8.844;2023-04-10T10:59:27;7.40;;;6.90;;
20890;SDS011;10605;52.968;8.844;2023-04-10T11:02:16;8.73;;;7.85;;
20890;SDS011;10605;52.968;8.844;2023-04-10T11:04:43;8.48;;;7.88;;
20890;SDS011;10605;52.968;8.844;2023-04-10T11:07:10;9.43;;;7.82;;
20890;SDS011;10605;52.968;8.844;2023-04-10T11:09:46;8.00;;;7.32;;
20890;SDS011;10605;52.968;8.844;2023-04-10T11:12:15;7.75;;;7.10;;
20890;SDS011;10605;52.968;8.844;2023-04-10T11:14:55;7.75;;;7.15;;
20890;SDS011;10605;52.968;8.844;2023-04-10T11:20:15;8.52;;;7.82;;
20890;SDS011;10605;52.968;8.844;2023-04-10T11:23:12;9.05;;;8.18;;
20890;SDS011;10605;52.968;8.844;2023-04-10T11:25:50;7.63;;;7.07;;
20890;SDS011;10605;52.968;8.844;2023-04-10T11:33:44;8.32;;;7.43;;
20890;SDS011;10605;52.968;8.844;2023-04-10T11:36:14;7.32;;;6.63;;
20890;SDS011;10605;52.968;8.844;2023-04-10T11:38:53;6.93;;;6.38;;
20890;SDS011;10605;52.968;8.844;2023-04-10T11:41:56;7.78;;;7.07;;
20890;SDS011;10605;52.968;8.844;2023-04-10T11:44:17;6.78;;;6.25;;
20890;SDS011;10605;52.968;8.844;2023-04-10T11:46:50;7.50;;;6.80;;
20890;SDS011;10605;52.968;8.844;2023-04-10T11:49:20;8.02;;;7.38;;
20890;SDS011;10605;52.968;8.844;2023-04-10T11:51:49;7.63;;;6.95;;
20890;SDS011;10605;52.968;8.844;2023-04-10T11:54:22;8.13;;;7.30;;
20890;SDS011;10605;52.968;8.844;2023-04-10T11:59:22;7.10;;;6.60;;
20890;SDS011;10605;52.968;8.844;2023-04-10T12:01:49;8.38;;;6.38;;
20890;SDS011;10605;52.968;8.844;2023-04-10T12:04:21;8.20;;;6.88;;
20890;SDS011;10605;52.968;8.844;2023-04-10T12:09:16;7.35;;;6.85;;
20890;SDS011;10605;52.968;8.844;2023-04-10T12:14:18;10.40;;;6.47;;
20890;SDS011;10605;52.968;8.844;2023-04-10T12:16:45;6.32;;;5.72;;
20890;SDS011;10605;52.968;8.844;2023-04-10T12:19:12;6.32;;;5.93;;
20890;SDS011;10605;52.968;8.844;2023-04-10T12:21:40;6.47;;;6.05;;
20890;SDS011;10605;52.968;8.844;2023-04-10T12:24:07;6.30;;;5.70;;
20890;SDS011;10605;52.968;8.844;2023-04-10T12:26:33;5.72;;;5.32;;
20890;SDS011;10605;52.968;8.844;2023-04-10T12:28:59;7.32;;;5.38;;
20890;SDS011;10605;52.968;8.844;2023-04-10T12:31:28;5.88;;;5.47;;
20890;SDS011;10605;52.968;8.844;2023-04-10T12:33:56;6.10;;;5.50;;
20890;SDS011;10605;52.968;8.844;2023-04-10T12:36:23;7.18;;;6.57;;
20890;SDS011;10605;52.968;8.844;2023-04-10T12:38:53;8.25;;;6.20;;
20890;SDS011;10605;52.968;8.844;2023-04-10T12:41:20;5.97;;;5.57;;
20890;SDS011;10605;52.968;8.844;2023-04-10T12:43:48;6.15;;;5.68;;
20890;SDS011;10605;52.968;8.844;2023-04-10T12:46:27;5.82;;;5.32;;
20890;SDS011;10605;52.968;8.844;2023-04-10T12:48:54;6.40;;;5.88;;
20890;SDS011;10605;52.968;8.844;2023-04-10T12:54:31;6.05;;;5.45;;
20890;SDS011;10605;52.968;8.844;2023-04-10T12:56:58;9.27;;;5.53;;
20890;SDS011;10605;52.968;8.844;2023-04-10T12:59:24;14.48;;;6.80;;
20890;SDS011;10605;52.968;8.844;2023-04-10T13:01:52;5.68;;;5.28;;
20890;SDS011;10605;52.968;8.844;2023-04-10T13:04:18;5.97;;;5.53;;
20890;SDS011;10605;52.968;8.844;2023-04-10T13:06:44;9.85;;;5.18;;
20890;SDS011;10605;52.968;8.844;2023-04-10T13:09:11;9.48;;;5.60;;
20890;SDS011;10605;52.968;8.844;2023-04-10T13:11:37;5.45;;;4.82;;
20890;SDS011;10605;52.968;8.844;2023-04-10T13:14:04;5.93;;;5.03;;
20890;SDS011;10605;52.968;8.844;2023-04-10T13:16:30;8.65;;;5.78;;
20890;SDS011;10605;52.968;8.844;2023-04-10T13:18:55;5.40;;;5.00;;
20890;SDS011;10605;52.968;8.844;2023-04-10T13:21:21;5.22;;;4.72;;
20890;SDS011;10605;52.968;8.844;2023-04-10T13:23:50;5.85;;;5.40;;
20890;SDS011;10605;52.968;8.844;2023-04-10T13:26:16;5.28;;;4.82;;
20890;SDS011;10605;52.968;8.844;2023-04-10T13:28:42;5.38;;;4.88;;
20890;SDS011;10605;52.968;8.844;2023-04-10T13:31:08;8.30;;;4.40;;
20890;SDS011;10605;52.968;8.844;2023-04-10T13:33:34;4.93;;;4.53;;
20890;SDS011;10605;52.968;8.844;2023-04-10T13:36:00;5.35;;;4.95;;
20890;SDS011;10605;52.968;8.844;2023-04-10T13:38:26;4.47;;;4.05;;
20890;SDS011;10605;52.968;8.844;2023-04-10T13:40:52;12.20;;;4.90;;
20890;SDS011;10605;52.968;8.844;2023-04-10T13:43:18;4.40;;;4.18;;
20890;SDS011;10605;52.968;8.844;2023-04-10T13:45:44;6.90;;;4.22;;
20890;SDS011;10605;52.968;8.844;2023-04-10T13:48:10;5.10;;;4.70;;
20890;SDS011;10605;52.968;8.844;2023-04-10T13:50:35;4.70;;;4.30;;
20890;SDS011;10605;52.968;8.844;2023-04-10T13:53:01;4.65;;;4.35;;
20890;SDS011;10605;52.968;8.844;2023-04-10T13:55:27;5.65;;;3.80;;
20890;SDS011;10605;52.968;8.844;2023-04-10T13:57:53;3.97;;;3.75;;
20890;SDS011;10605;52.968;8.844;2023-04-10T14:00:18;4.30;;;4.00;;
20890;SDS011;10605;52.968;8.844;2023-04-10T14:02:44;11.38;;;4.40;;
20890;SDS011;10605;52.968;8.844;2023-04-10T14:05:10;4.22;;;3.92;;
20890;SDS011;10605;52.968;8.844;2023-04-10T14:07:36;4.40;;;4.10;;
20890;SDS011;10605;52.968;8.844;2023-04-10T14:10:02;5.18;;;4.57;;
20890;SDS011;10605;52.968;8.844;2023-04-10T14:12:28;5.85;;;3.92;;
20890;SDS011;10605;52.968;8.844;2023-04-10T14:14:54;13.82;;;4.13;;
20890;SDS011;10605;52.968;8.844;2023-04-10T14:17:20;4.43;;;3.75;;
20890;SDS011;10605;52.968;8.844;2023-04-10T14:19:46;3.58;;;3.35;;
20890;SDS011;10605;52.968;8.844;2023-04-10T14:22:15;5.03;;;3.78;;
20890;SDS011;10605;52.968;8.844;2023-04-10T14:24:41;4.18;;;3.88;;
20890;SDS011;10605;52.968;8.844;2023-04-10T14:27:07;4.47;;;3.95;;
20890;SDS011;10605;52.968;8.844;2023-04-10T14:29:33;7.75;;;4.20;;
20890;SDS011;10605;52.968;8.844;2023-04-10T14:31:59;7.60;;;4.30;;
20890;SDS011;10605;52.968;8.844;2023-04-10T14:34:25;8.00;;;4.15;;
20890;SDS011;10605;52.968;8.844;2023-04-10T14:36:51;6.45;;;3.60;;
20890;SDS011;10605;52.968;8.844;2023-04-10T14:39:20;7.25;;;4.00;;
20890;SDS011;10605;52.968;8.844;2023-04-10T14:41:49;6.35;;;4.35;;
20890;SDS011;10605;52.968;8.844;2023-04-10T14:44:16;4.60;;;4.20;;
20890;SDS011;10605;52.968;8.844;2023-04-10T14:46:42;7.28;;;4.25;;
20890;SDS011;10605;52.968;8.844;2023-04-10T14:49:08;4.70;;;4.00;;
20890;SDS011;10605;52.968;8.844;2023-04-10T14:51:35;4.80;;;4.30;;
20890;SDS011;10605;52.968;8.844;2023-04-10T14:54:01;4.85;;;4.50;;
20890;SDS011;10605;52.968;8.844;2023-04-10T14:56:28;4.97;;;4.57;;
20890;SDS011;10605;52.968;8.844;2023-04-10T14:58:54;6.60;;;4.53;;
20890;SDS011;10605;52.968;8.844;2023-04-10T15:01:20;4.85;;;4.45;;
20890;SDS011;10605;52.968;8.844;2023-04-10T15:03:46;7.40;;;4.57;;
20890;SDS011;10605;52.968;8.844;2023-04-10T15:06:13;5.07;;;4.57;;
20890;SDS011;10605;52.968;8.844;2023-04-10T15:08:39;4.20;;;3.88;;
20890;SDS011;10605;52.968;8.844;2023-04-10T15:11:05;4.75;;;4.35;;
20890;SDS011;10605;52.968;8.844;2023-04-10T15:13:31;5.93;;;3.85;;
20890;SDS011;10605;52.968;8.844;2023-04-10T15:15:57;4.40;;;4.05;;
20890;SDS011;10605;52.968;8.844;2023-04-10T15:18:24;3.92;;;3.42;;